Houston, Texas
Traffic Map
Current Weather Conditions
Houston, Texas
Broken Clouds
Broken Clouds
38°
Feels Like: 29°
Wind Chill: 29° Ceiling: 10000
Heat Index: 38° Visibility: 10mi
Dew Point: 24° Wind: 16mph
Humidity: 57% Direction: 10° (N)
Pressure: 30.6in Gusts: 23mph
Raw Report DataKIAH 091353Z 01014G20KT 10SM BKN100 03/M04 A3060 RMK AO2 SLP362 T00331044
Traffic Incident Summary
Active as of:
Severity:
Category:
InformationThere was an issue retrieving the traffic information for this location. Please try a different location or try again shortly.
Advertisements
Track Severe Weather on mobile